createdAt,value
2023-02-13T00:05:59.754Z,16.57
2023-02-13T00:16:03.408Z,14.67
2023-02-13T00:26:12.239Z,15.73
2023-02-13T00:36:25.071Z,14.90
2023-02-13T00:46:27.635Z,13.47
2023-02-13T00:56:31.127Z,15.17
2023-02-13T01:06:37.826Z,16.00
2023-02-13T01:16:43.101Z,14.53
2023-02-13T01:26:47.482Z,12.90
2023-02-13T01:36:52.019Z,13.93
2023-02-13T01:46:54.200Z,15.97
2023-02-13T01:57:08.260Z,13.80
2023-02-13T02:07:30.252Z,13.67
2023-02-13T02:17:37.566Z,13.33
2023-02-13T02:28:05.208Z,13.60
2023-02-13T02:38:27.090Z,12.70
2023-02-13T02:48:51.459Z,13.27
2023-02-13T02:59:22.389Z,12.73
2023-02-13T03:09:53.540Z,12.50
2023-02-13T03:20:59.666Z,11.80
2023-02-13T03:31:14.081Z,12.00
2023-02-13T03:41:27.612Z,13.00
2023-02-13T03:51:34.199Z,12.57
2023-02-13T04:01:41.976Z,10.73
2023-02-13T04:11:55.575Z,11.87
2023-02-13T04:22:02.896Z,11.60
2023-02-13T04:32:07.202Z,12.13
2023-02-13T04:42:09.314Z,12.67
2023-02-13T04:52:11.511Z,11.87
2023-02-13T05:02:13.509Z,11.77
2023-02-13T05:12:15.573Z,13.50
2023-02-13T05:22:36.412Z,12.60
2023-02-13T05:32:43.386Z,13.60
2023-02-13T05:42:47.684Z,12.57
2023-02-13T05:52:51.984Z,12.77
2023-02-13T06:02:56.439Z,12.80
2023-02-13T06:12:58.472Z,12.87
2023-02-13T06:23:00.551Z,12.53
2023-02-13T06:33:05.077Z,11.33
2023-02-13T06:43:07.254Z,12.90
2023-02-13T06:53:09.266Z,13.50
2023-02-13T07:03:11.537Z,10.63
2023-02-13T07:13:16.096Z,10.40
2023-02-13T07:23:18.842Z,10.53
2023-02-13T07:33:21.004Z,10.07
2023-02-13T07:43:27.648Z,8.33
2023-02-13T07:53:32.682Z,8.90
2023-02-13T08:03:37.007Z,7.93
2023-02-13T08:13:41.897Z,10.63
2023-02-13T08:23:46.258Z,6.97
2023-02-13T08:33:50.754Z,6.97
2023-02-13T08:43:57.465Z,6.10
2023-02-13T08:54:01.992Z,5.23
2023-02-13T09:04:05.129Z,5.00
2023-02-13T09:14:07.318Z,5.00
2023-02-13T09:24:10.711Z,6.17
2023-02-13T09:34:17.686Z,4.80
2023-02-13T09:44:35.354Z,4.37
2023-02-13T09:54:42.025Z,5.37
2023-02-13T10:05:03.542Z,4.83
2023-02-13T10:15:21.931Z,5.00
2023-02-13T10:25:51.219Z,5.60
2023-02-13T10:36:11.510Z,5.67
2023-02-13T10:46:22.980Z,5.90
2023-02-13T10:56:37.198Z,5.47
2023-02-13T11:06:56.426Z,6.43
2023-02-13T11:17:05.718Z,6.77
2023-02-13T11:27:14.069Z,7.37
2023-02-13T11:37:23.382Z,6.10
2023-02-13T11:47:43.142Z,8.03
2023-02-13T11:57:56.792Z,7.70
2023-02-13T12:08:02.235Z,7.70
2023-02-13T12:18:20.825Z,7.33
2023-02-13T12:28:51.707Z,7.00
2023-02-13T12:38:59.649Z,7.93
2023-02-13T12:49:45.543Z,7.53
2023-02-13T13:00:07.193Z,7.60
2023-02-13T13:10:20.850Z,7.77
2023-02-13T13:20:44.651Z,7.60
2023-02-13T13:30:47.286Z,7.73
2023-02-13T13:41:46.175Z,7.60
2023-02-13T13:51:48.701Z,8.27
2023-02-13T14:02:19.528Z,7.10
2023-02-13T14:12:30.528Z,7.40
2023-02-13T14:22:41.601Z,7.23
2023-02-13T14:32:45.920Z,8.23
2023-02-13T14:43:04.222Z,7.77
2023-02-13T14:53:17.127Z,7.87
2023-02-13T15:03:32.053Z,7.30
2023-02-13T15:13:38.012Z,5.70
2023-02-13T15:23:46.315Z,5.73
2023-02-13T15:33:58.967Z,5.70
2023-02-13T15:44:01.305Z,6.40
2023-02-13T15:54:07.857Z,5.60
2023-02-13T16:04:14.997Z,4.57
2023-02-13T16:14:24.939Z,4.90
2023-02-13T16:24:34.485Z,4.67
2023-02-13T16:34:36.826Z,4.47
2023-02-13T16:44:38.912Z,5.07
2023-02-13T16:55:04.578Z,4.40
2023-02-13T17:05:09.658Z,4.13
2023-02-13T17:15:17.865Z,3.97
2023-02-13T17:25:21.322Z,3.53
2023-02-13T17:35:23.547Z,3.53
2023-02-13T17:45:33.208Z,4.47
2023-02-13T17:55:40.230Z,3.80
2023-02-13T18:05:48.224Z,4.50
2023-02-13T18:15:52.705Z,4.43
2023-02-13T18:25:58.221Z,4.13
2023-02-13T18:36:04.139Z,4.67
2023-02-13T18:46:08.675Z,5.17
2023-02-13T18:56:16.096Z,5.00
2023-02-13T19:06:21.495Z,4.80
2023-02-13T19:16:28.203Z,4.87
2023-02-13T19:26:32.560Z,5.10
2023-02-13T19:36:37.181Z,4.50
2023-02-13T19:46:39.872Z,4.63
2023-02-13T19:56:42.175Z,4.90
2023-02-13T20:06:44.825Z,4.80
2023-02-13T20:16:47.002Z,4.40
2023-02-13T20:26:59.052Z,4.83
2023-02-13T20:37:01.157Z,4.70
2023-02-13T20:47:05.422Z,4.13
2023-02-13T20:57:07.709Z,5.77
2023-02-13T21:07:09.864Z,4.00
2023-02-13T21:17:15.596Z,4.13
2023-02-13T21:27:22.661Z,4.13
2023-02-13T21:37:27.654Z,4.13
2023-02-13T21:47:29.781Z,4.40
2023-02-13T21:57:35.339Z,3.77
2023-02-13T22:07:59.503Z,3.77
2023-02-13T22:18:04.503Z,4.70
2023-02-13T22:28:09.569Z,6.37
2023-02-13T22:38:12.101Z,4.77
2023-02-13T22:48:19.099Z,4.23
2023-02-13T22:58:21.177Z,4.80
2023-02-13T23:08:23.185Z,4.20
2023-02-13T23:18:27.722Z,4.70
2023-02-13T23:28:29.794Z,4.83
2023-02-13T23:38:34.202Z,5.43
2023-02-13T23:48:36.336Z,4.57
2023-02-13T23:58:38.471Z,4.80
